Time;durP1;ratioP1;P1;durP2;ratioP2;P2;SDS_P1;SDS_P2;PMS_P1;PMS_P2;Temp;Humidity;BMP_temperature;BMP_pressure;BME280_temperature;BME280_humidity;BME280_pressure;Samples;Min_cycle;Max_cycle;Signal;HPM_P1;HPM_P2
2021/01/26 00:02:49;;;;;;;9.05;3.40;;;2.40;77.60;;;;;;9965746;28;20041;-61
2021/01/26 00:07:40;;;;;;;7.53;3.35;;;2.50;77.40;;;;;;9966330;28;20049;-60
2021/01/26 00:12:30;;;;;;;9.57;4.20;;;2.40;77.40;;;;;;9965378;28;20052;-60
2021/01/26 00:17:21;;;;;;;5.78;3.15;;;2.40;77.50;;;;;;9965932;28;20045;-60
2021/01/26 00:22:11;;;;;;;6.75;3.40;;;2.40;77.40;;;;;;9965391;28;20047;-60
2021/01/26 00:27:03;;;;;;;6.97;3.58;;;2.40;77.30;;;;;;9966647;28;20677;-61
2021/01/26 00:31:53;;;;;;;6.47;3.58;;;2.40;77.10;;;;;;9965764;28;20092;-61
2021/01/26 00:36:44;;;;;;;7.53;3.30;;;2.40;77.10;;;;;;9965383;28;20139;-60
2021/01/26 00:41:34;;;;;;;6.50;3.30;;;2.40;76.90;;;;;;9964919;28;20038;-61
2021/01/26 00:46:25;;;;;;;7.78;3.03;;;2.40;76.80;;;;;;9965783;28;20036;-60
2021/01/26 00:51:16;;;;;;;6.68;3.50;;;2.40;76.90;;;;;;9965773;28;20041;-60
2021/01/26 00:56:06;;;;;;;7.43;3.45;;;2.40;76.80;;;;;;9964784;28;20037;-60
2021/01/26 01:00:57;;;;;;;7.82;3.10;;;2.40;76.80;;;;;;9965595;28;20037;-59
2021/01/26 01:05:48;;;;;;;6.43;3.08;;;2.50;76.80;;;;;;9987703;28;20176;-60
2021/01/26 01:10:38;;;;;;;8.18;3.03;;;2.40;77.30;;;;;;9971327;28;20077;-59
2021/01/26 01:15:29;;;;;;;8.77;2.85;;;2.30;76.50;;;;;;9971832;28;20024;-59
2021/01/26 01:20:22;;;;;;;9.02;3.67;;;2.30;76.50;;;;;;9974389;28;21006;-60
2021/01/26 01:25:13;;;;;;;5.75;2.63;;;2.30;76.50;;;;;;9971222;28;20601;-60
2021/01/26 01:30:09;;;;;;;8.07;3.40;;;2.30;76.40;;;;;;9968763;28;20045;-60
2021/01/26 01:35:00;;;;;;;7.70;2.92;;;2.30;76.60;;;;;;9969769;28;21200;-60
2021/01/26 01:39:51;;;;;;;7.45;3.20;;;2.30;76.60;;;;;;9971148;28;20650;-59
2021/01/26 01:44:41;;;;;;;7.43;2.63;;;2.30;76.50;;;;;;9969915;28;20144;-62
2021/01/26 01:49:43;;;;;;;8.43;3.60;;;2.40;76.60;;;;;;9971469;28;20615;-60
2021/01/26 01:54:42;;;;;;;7.15;2.83;;;2.40;76.70;;;;;;9971043;28;20769;-60
2021/01/26 01:59:41;;;;;;;7.32;3.40;;;2.50;76.80;;;;;;9969658;28;20041;-59
2021/01/26 02:04:33;;;;;;;5.80;2.65;;;2.60;76.60;;;;;;9969885;28;20037;-60
2021/01/26 02:09:25;;;;;;;4.93;2.97;;;2.60;76.60;;;;;;9970482;28;20213;-59
2021/01/26 02:14:16;;;;;;;7.95;3.22;;;2.60;76.60;;;;;;9967317;28;20095;-60
2021/01/26 02:19:18;;;;;;;5.60;2.75;;;2.70;76.50;;;;;;9969803;28;20055;-59
2021/01/26 02:24:24;;;;;;;8.55;3.28;;;2.70;76.70;;;;;;9970337;28;21566;-59
2021/01/26 02:29:25;;;;;;;5.30;2.70;;;2.70;76.80;;;;;;9968890;28;20758;-60
2021/01/26 02:34:41;;;;;;;9.73;2.80;;;2.70;76.60;;;;;;9969475;28;20037;-60
2021/01/26 02:39:34;;;;;;;8.45;2.72;;;2.80;76.60;;;;;;9965031;28;20191;-59
2021/01/26 02:44:31;;;;;;;6.85;2.58;;;2.80;76.50;;;;;;9969045;28;20033;-59
2021/01/26 02:49:36;;;;;;;5.18;2.83;;;2.90;76.40;;;;;;9968838;28;20060;-60
2021/01/26 02:54:29;;;;;;;7.97;3.08;;;2.90;76.40;;;;;;9967144;28;20491;-60
2021/01/26 02:59:29;;;;;;;6.03;2.97;;;2.90;76.60;;;;;;9967561;28;20037;-59
2021/01/26 03:04:31;;;;;;;4.63;2.63;;;2.90;76.30;;;;;;9966075;28;20566;-59
2021/01/26 03:09:43;;;;;;;4.60;2.58;;;2.90;76.30;;;;;;9968210;28;20056;-60
2021/01/26 03:14:52;;;;;;;6.28;3.42;;;3.00;76.20;;;;;;9965401;28;20045;-60
2021/01/26 03:19:49;;;;;;;5.13;3.00;;;3.00;76.20;;;;;;9967394;28;20062;-59
2021/01/26 03:24:41;;;;;;;7.05;3.13;;;3.00;76.10;;;;;;9965672;28;21130;-59
2021/01/26 03:29:35;;;;;;;6.75;2.53;;;3.00;76.20;;;;;;9966329;28;20041;-59
2021/01/26 03:34:26;;;;;;;5.10;2.78;;;2.90;76.30;;;;;;9966558;28;20061;-60
2021/01/26 03:39:18;;;;;;;7.97;3.15;;;2.90;76.40;;;;;;9965355;28;20029;-60
2021/01/26 03:44:11;;;;;;;5.65;2.72;;;2.90;76.50;;;;;;9966072;28;20036;-59
2021/01/26 03:49:19;;;;;;;5.40;2.65;;;2.90;76.50;;;;;;9965198;28;20132;-61
2021/01/26 03:54:19;;;;;;;3.90;2.28;;;2.80;76.50;;;;;;9965870;28;20033;-59
2021/01/26 03:59:13;;;;;;;5.68;2.78;;;2.90;76.50;;;;;;9964560;28;20453;-59
2021/01/26 04:04:22;;;;;;;4.22;2.15;;;2.90;76.40;;;;;;9964249;28;20045;-59
2021/01/26 04:09:23;;;;;;;5.63;2.33;;;2.90;76.30;;;;;;9963667;28;20136;-59
2021/01/26 04:14:24;;;;;;;4.25;2.13;;;2.90;76.40;;;;;;9962097;28;20051;-59
2021/01/26 04:19:23;;;;;;;4.13;2.05;;;2.90;76.20;;;;;;9965504;28;20045;-60
2021/01/26 04:24:15;;;;;;;5.00;2.15;;;3.00;76.10;;;;;;9965456;28;20033;-60
2021/01/26 04:29:06;;;;;;;5.35;2.10;;;3.10;76.00;;;;;;9964948;28;20080;-59
2021/01/26 04:33:56;;;;;;;3.70;1.60;;;3.10;75.70;;;;;;9965137;28;20047;-59
2021/01/26 04:38:47;;;;;;;4.30;1.95;;;3.00;75.80;;;;;;9970924;28;20306;-60
2021/01/26 04:43:59;;;;;;;2.80;1.73;;;3.10;75.70;;;;;;9973301;28;20056;-60
2021/01/26 04:49:23;;;;;;;2.85;1.73;;;3.10;75.70;;;;;;9972735;28;20045;-60
2021/01/26 04:54:43;;;;;;;1.98;1.13;;;3.10;75.60;;;;;;9972202;28;20715;-60
2021/01/26 05:00:06;;;;;;;6.85;1.52;;;3.20;75.40;;;;;;9971837;28;20712;-59
2021/01/26 05:05:05;;;;;;;1.95;1.23;;;3.10;75.80;;;;;;9972277;28;20068;-59
2021/01/26 05:10:14;;;;;;;2.58;1.27;;;3.10;75.10;;;;;;9971265;28;21130;-59
2021/01/26 05:15:08;;;;;;;2.90;1.30;;;3.20;74.80;;;;;;9970421;28;20517;-59
2021/01/26 05:20:04;;;;;;;2.45;1.60;;;3.20;74.70;;;;;;9973374;28;20507;-60
2021/01/26 05:24:59;;;;;;;4.13;1.42;;;3.30;74.60;;;;;;9971773;28;20033;-60
2021/01/26 05:29:50;;;;;;;7.85;1.73;;;3.20;74.60;;;;;;9971508;28;20037;-59
2021/01/26 05:34:42;;;;;;;6.28;1.00;;;3.20;74.60;;;;;;9971613;28;20068;-59
2021/01/26 05:40:12;;;;;;;2.65;1.13;;;3.20;74.60;;;;;;9972341;28;21506;-60
2021/01/26 05:45:11;;;;;;;3.67;1.70;;;3.20;74.30;;;;;;9968723;28;20033;-60
2021/01/26 05:50:02;;;;;;;5.43;1.52;;;3.20;74.50;;;;;;9971226;28;20049;-60
2021/01/26 05:54:54;;;;;;;5.28;1.50;;;3.20;74.30;;;;;;9971278;28;20029;-60
2021/01/26 05:59:44;;;;;;;4.03;1.52;;;3.20;74.40;;;;;;9969016;28;20521;-60
2021/01/26 06:04:37;;;;;;;4.25;1.80;;;3.30;74.30;;;;;;9968740;28;20667;-60
2021/01/26 06:09:40;;;;;;;5.00;1.30;;;3.30;74.30;;;;;;9969216;28;20045;-60
2021/01/26 06:14:31;;;;;;;2.33;1.30;;;3.20;74.30;;;;;;9967963;28;20026;-60
2021/01/26 06:19:21;;;;;;;2.47;1.38;;;3.20;74.50;;;;;;9968340;28;21234;-59
2021/01/26 06:24:17;;;;;;;3.75;1.52;;;3.10;74.50;;;;;;9970930;28;20037;-61
2021/01/26 06:29:27;;;;;;;3.88;1.08;;;3.10;74.60;;;;;;9967135;28;20049;-60
2021/01/26 06:34:47;;;;;;;2.25;1.15;;;3.10;74.70;;;;;;9966778;28;20407;-59
2021/01/26 06:40:08;;;;;;;1.80;1.20;;;3.10;74.50;;;;;;9968062;28;20095;-60
2021/01/26 06:45:21;;;;;;;2.17;1.20;;;3.10;74.60;;;;;;9966697;28;20076;-59
2021/01/26 06:50:26;;;;;;;2.92;1.48;;;3.10;74.50;;;;;;9959452;28;20657;-61
2021/01/26 06:55:30;;;;;;;4.40;1.77;;;3.00;74.70;;;;;;9968101;28;20152;-61
2021/01/26 07:00:43;;;;;;;3.83;1.33;;;3.10;74.80;;;;;;9965480;28;20342;-60
2021/01/26 07:05:52;;;;;;;3.22;1.85;;;3.00;75.10;;;;;;9968900;28;20033;-61
2021/01/26 07:10:49;;;;;;;1.58;0.35;;;3.00;74.90;;;;;;9967936;28;21501;-60
2021/01/26 07:15:58;;;;;;;3.15;1.92;;;3.00;75.30;;;;;;9966330;28;20491;-60
2021/01/26 07:21:10;;;;;;;3.08;1.60;;;2.90;75.70;;;;;;9967741;28;20057;-60
2021/01/26 07:26:20;;;;;;;3.13;1.63;;;2.90;75.80;;;;;;9966192;28;21397;-60
2021/01/26 07:31:28;;;;;;;3.30;1.73;;;2.90;75.70;;;;;;9966643;28;20103;-59
2021/01/26 07:36:34;;;;;;;6.57;1.83;;;2.90;75.70;;;;;;9967775;28;20025;-61
2021/01/26 07:41:49;;;;;;;3.27;1.60;;;2.80;75.80;;;;;;9965362;28;20570;-58
2021/01/26 07:46:51;;;;;;;4.35;1.73;;;2.80;76.10;;;;;;9955337;28;20095;-59
2021/01/26 07:51:46;;;;;;;4.70;2.05;;;2.70;76.10;;;;;;9965996;28;20041;-60
2021/01/26 07:56:40;;;;;;;5.43;2.65;;;2.70;75.90;;;;;;9966111;28;20029;-58
2021/01/26 08:01:40;;;;;;;3.90;2.08;;;2.70;76.10;;;;;;9964020;28;20091;-57
2021/01/26 08:06:36;;;;;;;3.92;2.17;;;2.70;76.00;;;;;;9966297;28;20111;-60
2021/01/26 08:11:27;;;;;;;5.55;2.45;;;2.80;75.80;;;;;;9937574;28;20049;-59
2021/01/26 08:16:35;;;;;;;5.18;2.47;;;2.80;75.70;;;;;;9960242;28;20061;-59
2021/01/26 08:21:31;;;;;;;4.40;2.47;;;2.80;75.60;;;;;;9965640;28;20707;-58
2021/01/26 08:26:23;;;;;;;6.30;2.20;;;2.80;75.60;;;;;;9964012;28;20025;-60
2021/01/26 08:31:35;;;;;;;4.70;2.53;;;2.80;76.00;;;;;;10001021;28;20562;-60
2021/01/26 08:36:32;;;;;;;6.50;2.42;;;2.80;75.80;;;;;;10044987;28;20438;-59
2021/01/26 08:41:45;;;;;;;7.13;3.10;;;2.90;76.00;;;;;;10040246;28;20037;-59
2021/01/26 08:46:42;;;;;;;7.30;3.50;;;3.00;75.60;;;;;;10041555;28;20018;-59
2021/01/26 08:51:34;;;;;;;4.72;2.80;;;3.10;75.60;;;;;;10042455;28;20051;-60
2021/01/26 08:56:27;;;;;;;6.10;3.67;;;3.20;75.60;;;;;;10038867;28;20018;-58
2021/01/26 09:01:23;;;;;;;5.47;2.50;;;3.30;75.30;;;;;;10042090;28;20212;-59
2021/01/26 09:06:43;;;;;;;5.20;2.22;;;3.40;75.40;;;;;;10039417;28;20125;-60
2021/01/26 09:11:39;;;;;;;6.95;3.20;;;3.60;75.10;;;;;;10034713;28;20042;-59
2021/01/26 09:16:31;;;;;;;5.75;2.80;;;3.70;75.00;;;;;;10041382;28;20043;-61
2021/01/26 09:21:23;;;;;;;9.77;3.20;;;3.80;75.00;;;;;;10032000;28;20041;-59
2021/01/26 09:26:16;;;;;;;4.32;2.28;;;3.90;74.90;;;;;;10041231;28;20063;-59
2021/01/26 09:31:10;;;;;;;5.80;2.45;;;4.10;74.60;;;;;;10048084;28;20355;-59
2021/01/26 09:36:01;;;;;;;3.90;2.92;;;4.30;74.20;;;;;;10048560;28;20116;-61
2021/01/26 09:41:03;;;;;;;5.30;1.88;;;4.30;73.90;;;;;;10047146;28;20695;-61
2021/01/26 09:46:05;;;;;;;3.30;1.50;;;4.50;72.50;;;;;;10047296;28;20029;-59
2021/01/26 09:51:14;;;;;;;3.58;2.05;;;4.60;72.10;;;;;;10048674;28;20269;-60
2021/01/26 09:56:06;;;;;;;3.95;1.52;;;4.70;70.90;;;;;;10050957;28;20057;-60
2021/01/26 10:00:57;;;;;;;4.85;1.40;;;4.90;71.50;;;;;;10046053;28;20049;-58
2021/01/26 10:05:48;;;;;;;3.88;1.95;;;4.90;70.40;;;;;;10044123;28;20556;-61
2021/01/26 10:10:40;;;;;;;4.00;1.20;;;4.90;71.00;;;;;;10046579;28;20042;-60
2021/01/26 10:15:34;;;;;;;5.15;1.65;;;5.00;70.50;;;;;;10045739;28;20415;-60
2021/01/26 10:20:37;;;;;;;3.47;1.48;;;5.00;69.90;;;;;;10045268;28;20088;-60
2021/01/26 10:25:28;;;;;;;8.18;2.53;;;5.00;69.60;;;;;;10045994;28;20076;-61
2021/01/26 10:30:27;;;;;;;4.13;1.83;;;5.10;69.60;;;;;;10046768;28;20092;-61
2021/01/26 10:35:38;;;;;;;4.22;2.05;;;5.20;69.10;;;;;;10050617;28;20032;-60
2021/01/26 10:40:33;;;;;;;3.92;1.50;;;5.30;68.80;;;;;;10048882;28;20033;-60
2021/01/26 10:45:53;;;;;;;3.80;1.33;;;5.40;68.70;;;;;;10047516;28;20036;-59
2021/01/26 10:50:44;;;;;;;2.90;1.25;;;5.40;67.80;;;;;;10028659;28;20060;-60
2021/01/26 10:55:34;;;;;;;1.75;1.38;;;5.50;68.00;;;;;;10042100;28;20033;-63
2021/01/26 11:00:28;;;;;;;3.55;1.13;;;5.60;67.80;;;;;;10047068;28;20021;-60
2021/01/26 11:05:19;;;;;;;3.22;1.55;;;5.60;67.20;;;;;;10044700;28;20112;-61
2021/01/26 11:10:12;;;;;;;1.80;1.10;;;5.60;67.30;;;;;;10045935;28;20152;-60
2021/01/26 11:15:09;;;;;;;3.40;1.60;;;5.70;66.80;;;;;;10044079;28;20592;-60
2021/01/26 11:20:00;;;;;;;5.82;1.40;;;5.80;67.00;;;;;;10044900;28;20308;-62
2021/01/26 11:24:51;;;;;;;3.05;1.13;;;5.90;66.60;;;;;;10051206;28;20478;-60
2021/01/26 11:29:41;;;;;;;3.10;2.40;;;6.00;66.30;;;;;;10044420;28;20287;-60
2021/01/26 11:34:32;;;;;;;2.00;1.30;;;6.20;66.20;;;;;;10043368;28;20049;-61
2021/01/26 11:39:23;;;;;;;6.70;1.95;;;6.30;65.80;;;;;;10045200;28;20116;-60
2021/01/26 11:44:14;;;;;;;3.63;1.08;;;6.30;64.80;;;;;;10042877;28;20112;-60
2021/01/26 11:49:05;;;;;;;2.83;0.90;;;6.30;64.50;;;;;;10038924;28;20539;-61
2021/01/26 11:53:56;;;;;;;3.17;1.20;;;6.30;64.50;;;;;;10042964;28;20037;-59
2021/01/26 11:58:47;;;;;;;1.60;0.98;;;6.30;63.80;;;;;;10044400;28;20113;-60
2021/01/26 12:03:38;;;;;;;2.25;1.17;;;6.40;63.70;;;;;;10044205;28;20037;-62
2021/01/26 12:08:29;;;;;;;2.67;1.20;;;6.40;63.20;;;;;;10042286;28;20037;-61
2021/01/26 12:13:19;;;;;;;6.65;1.63;;;6.30;62.50;;;;;;10041074;28;20086;-61
2021/01/26 12:18:11;;;;;;;1.40;0.82;;;6.30;62.90;;;;;;10042074;28;20053;-62
2021/01/26 12:23:02;;;;;;;1.02;0.43;;;6.30;62.00;;;;;;10044502;28;20029;-62
2021/01/26 12:27:53;;;;;;;3.10;1.02;;;6.30;61.60;;;;;;10044986;28;20037;-61
2021/01/26 12:32:44;;;;;;;2.78;1.10;;;6.10;61.90;;;;;;10043012;28;20496;-61
2021/01/26 12:37:35;;;;;;;1.80;0.98;;;6.20;62.00;;;;;;10042234;28;20038;-61
2021/01/26 12:42:26;;;;;;;2.50;1.00;;;6.20;61.60;;;;;;10039550;28;20095;-62
2021/01/26 12:47:18;;;;;;;2.22;1.17;;;6.20;61.30;;;;;;10041668;28;20509;-62
2021/01/26 12:52:09;;;;;;;2.45;0.93;;;6.20;61.10;;;;;;10041097;28;20025;-56
2021/01/26 12:56:59;;;;;;;2.88;1.40;;;6.20;60.50;;;;;;10042675;28;20116;-59
2021/01/26 13:01:50;;;;;;;2.40;0.85;;;6.20;60.60;;;;;;10049160;28;20044;-60
2021/01/26 13:06:40;;;;;;;1.65;1.02;;;6.30;60.20;;;;;;10049151;28;20112;-62
2021/01/26 13:11:31;;;;;;;1.52;0.68;;;6.30;59.80;;;;;;10042502;28;20148;-61
2021/01/26 13:16:22;;;;;;;4.03;1.20;;;6.30;59.50;;;;;;10047286;28;20502;-62
2021/01/26 13:21:13;;;;;;;1.67;1.40;;;6.30;59.40;;;;;;10038992;28;20060;-60
2021/01/26 13:26:03;;;;;;;1.90;1.35;;;6.30;59.20;;;;;;10050147;28;20539;-60
2021/01/26 13:30:54;;;;;;;3.38;0.90;;;6.30;59.00;;;;;;10047524;28;20044;-61
2021/01/26 13:35:44;;;;;;;3.10;1.50;;;6.40;58.70;;;;;;10046348;28;20135;-60
2021/01/26 13:40:35;;;;;;;1.27;0.90;;;6.40;58.70;;;;;;10049347;28;20491;-62
2021/01/26 13:45:29;;;;;;;1.55;0.90;;;6.50;58.60;;;;;;10049456;28;20634;-62
2021/01/26 13:50:22;;;;;;;1.27;1.00;;;6.40;58.10;;;;;;10045392;28;20057;-62
2021/01/26 13:55:14;;;;;;;1.65;0.80;;;6.30;58.10;;;;;;10044546;28;20026;-61
2021/01/26 14:00:07;;;;;;;2.80;1.05;;;6.30;58.10;;;;;;10045761;28;20099;-63
2021/01/26 14:04:58;;;;;;;2.05;1.10;;;6.30;58.10;;;;;;10048526;28;20029;-61
2021/01/26 14:09:49;;;;;;;2.03;0.93;;;6.30;58.00;;;;;;10044360;28;20029;-62
2021/01/26 14:14:40;;;;;;;2.17;1.38;;;6.30;58.00;;;;;;10041835;28;20056;-61
2021/01/26 14:19:32;;;;;;;3.10;1.38;;;6.10;58.30;;;;;;10046134;28;20462;-61
2021/01/26 14:24:22;;;;;;;2.22;1.02;;;6.20;58.40;;;;;;10047318;28;20021;-60
2021/01/26 14:29:13;;;;;;;0.95;0.82;;;6.20;58.60;;;;;;10046022;28;20071;-61
2021/01/26 14:34:04;;;;;;;2.33;1.75;;;6.30;58.70;;;;;;10048607;28;20033;-60
2021/01/26 14:38:55;;;;;;;3.95;1.10;;;6.30;58.90;;;;;;10047390;28;20040;-60
2021/01/26 14:43:45;;;;;;;2.13;1.42;;;6.30;58.90;;;;;;10055709;28;20104;-60
2021/01/26 14:48:36;;;;;;;2.20;0.98;;;6.30;59.20;;;;;;10048381;28;20380;-60
2021/01/26 14:53:27;;;;;;;2.75;1.15;;;6.20;59.40;;;;;;10048836;28;20040;-62
2021/01/26 14:58:17;;;;;;;3.80;1.70;;;6.10;59.60;;;;;;10045169;28;20033;-61
2021/01/26 15:03:08;;;;;;;2.70;0.90;;;6.10;60.30;;;;;;10048908;28;20059;-59
2021/01/26 15:07:58;;;;;;;2.60;1.10;;;6.10;59.70;;;;;;10046040;28;20396;-60
2021/01/26 15:12:49;;;;;;;4.90;1.73;;;6.00;59.80;;;;;;10044940;28;20108;-60
2021/01/26 15:17:40;;;;;;;2.30;1.40;;;5.90;60.30;;;;;;10052211;28;20057;-60
2021/01/26 15:22:31;;;;;;;2.10;1.02;;;5.80;60.60;;;;;;10037855;28;20495;-60
2021/01/26 15:27:21;;;;;;;2.97;1.77;;;5.80;60.80;;;;;;10041334;28;20032;-60
2021/01/26 15:32:12;;;;;;;2.97;1.30;;;5.70;60.70;;;;;;10044464;28;20144;-61
2021/01/26 15:37:03;;;;;;;2.83;1.38;;;5.70;60.90;;;;;;10039119;28;20434;-61
2021/01/26 15:41:54;;;;;;;2.17;1.20;;;5.60;61.20;;;;;;10042451;28;20021;-60
2021/01/26 15:46:44;;;;;;;1.92;1.38;;;5.60;61.50;;;;;;10043865;28;20340;-60
2021/01/26 15:51:35;;;;;;;2.25;1.48;;;5.60;61.60;;;;;;10045878;28;20046;-61
2021/01/26 15:56:26;;;;;;;1.90;1.25;;;5.50;61.80;;;;;;10046863;28;20669;-61
2021/01/26 16:01:16;;;;;;;2.88;1.85;;;5.40;62.20;;;;;;10036598;28;20454;-60
2021/01/26 16:06:13;;;;;;;3.50;1.75;;;5.40;62.50;;;;;;10040890;28;20261;-61
2021/01/26 16:11:04;;;;;;;2.78;1.70;;;5.20;63.10;;;;;;10034289;28;20041;-60
2021/01/26 16:15:55;;;;;;;4.20;1.95;;;5.10;63.20;;;;;;10042841;28;20033;-60
2021/01/26 16:20:46;;;;;;;3.63;1.65;;;5.10;63.40;;;;;;10039653;28;21002;-60
2021/01/26 16:25:37;;;;;;;3.95;1.45;;;5.00;63.60;;;;;;10042176;28;20049;-61
2021/01/26 16:30:28;;;;;;;2.72;1.65;;;5.00;63.90;;;;;;10044656;28;20124;-53
2021/01/26 16:35:20;;;;;;;2.42;1.30;;;4.90;63.90;;;;;;10054743;28;20621;-63
2021/01/26 16:40:13;;;;;;;2.45;1.40;;;4.90;64.10;;;;;;10042479;28;20033;-61
2021/01/26 16:45:05;;;;;;;6.82;2.00;;;4.90;64.00;;;;;;10058644;28;20022;-61
2021/01/26 16:49:56;;;;;;;4.25;1.60;;;5.00;64.30;;;;;;10052934;28;20377;-62
2021/01/26 16:54:46;;;;;;;2.58;1.58;;;4.90;64.30;;;;;;10047084;28;20017;-59
2021/01/26 16:59:37;;;;;;;2.17;1.45;;;4.80;64.70;;;;;;10051935;28;20158;-60
2021/01/26 17:04:28;;;;;;;1.40;1.20;;;4.80;65.00;;;;;;10053337;28;20041;-61
2021/01/26 17:09:19;;;;;;;1.90;1.40;;;4.80;65.10;;;;;;10051672;28;20179;-61
2021/01/26 17:14:09;;;;;;;3.05;1.83;;;4.80;65.40;;;;;;10069577;28;20053;-61
2021/01/26 17:19:00;;;;;;;3.50;1.52;;;4.80;65.50;;;;;;10052243;28;20050;-64
2021/01/26 17:23:51;;;;;;;4.05;2.40;;;4.80;65.70;;;;;;10057426;28;20027;-62
2021/01/26 17:28:42;;;;;;;32.83;12.45;;;4.90;65.60;;;;;;10054377;28;20045;-62
2021/01/26 17:33:32;;;;;;;7.60;3.95;;;4.90;65.50;;;;;;10055200;28;20033;-63
2021/01/26 17:38:23;;;;;;;5.18;2.35;;;4.90;65.90;;;;;;10054445;28;20021;-60
2021/01/26 17:43:14;;;;;;;4.53;2.22;;;4.90;66.20;;;;;;10054386;28;20526;-61
2021/01/26 17:48:06;;;;;;;5.05;2.33;;;4.90;66.20;;;;;;10043682;28;20033;-60
2021/01/26 17:52:56;;;;;;;2.92;1.73;;;4.90;66.30;;;;;;10048999;28;20049;-60
2021/01/26 17:57:47;;;;;;;3.47;1.67;;;4.80;66.60;;;;;;10048567;28;20349;-61
2021/01/26 18:02:38;;;;;;;4.20;2.28;;;4.90;66.80;;;;;;10044607;28;20403;-64
2021/01/26 18:07:28;;;;;;;3.20;2.13;;;4.80;66.90;;;;;;10044072;28;20109;-61
2021/01/26 18:12:19;;;;;;;3.35;1.75;;;4.80;67.00;;;;;;10049306;28;20388;-61
2021/01/26 18:17:09;;;;;;;4.18;1.42;;;4.80;67.00;;;;;;10043631;28;20049;-61
2021/01/26 18:22:00;;;;;;;2.08;1.85;;;4.90;66.90;;;;;;10049199;28;20049;-60
2021/01/26 18:26:51;;;;;;;3.53;1.92;;;4.90;66.70;;;;;;10042165;28;20184;-61
2021/01/26 18:31:41;;;;;;;3.15;1.65;;;4.90;66.70;;;;;;10039917;28;20064;-61
2021/01/26 18:36:33;;;;;;;3.42;1.95;;;4.90;66.80;;;;;;10043497;28;20025;-60
2021/01/26 18:41:24;;;;;;;4.18;2.03;;;4.90;66.70;;;;;;10047497;28;20043;-59
2021/01/26 18:46:15;;;;;;;6.20;2.83;;;4.80;66.70;;;;;;10046797;28;20037;-60
2021/01/26 18:51:06;;;;;;;4.50;2.58;;;4.90;66.70;;;;;;10044284;28;20488;-60
2021/01/26 18:55:57;;;;;;;4.40;2.05;;;4.80;66.50;;;;;;10046623;28;20116;-62
2021/01/26 19:00:47;;;;;;;1.88;1.50;;;4.80;66.50;;;;;;10048646;28;20116;-60
2021/01/26 19:05:38;;;;;;;2.85;1.65;;;4.80;66.40;;;;;;10044888;28;20037;-61
2021/01/26 19:10:29;;;;;;;3.03;1.83;;;4.80;66.30;;;;;;10040933;28;20099;-59
2021/01/26 19:15:23;;;;;;;3.55;2.00;;;4.80;66.20;;;;;;10036214;28;20483;-59
2021/01/26 19:20:16;;;;;;;3.78;2.28;;;4.90;66.10;;;;;;10041360;28;20045;-61
2021/01/26 19:25:07;;;;;;;4.45;2.10;;;4.90;65.90;;;;;;10053775;28;20057;-60
2021/01/26 19:29:58;;;;;;;4.53;1.92;;;4.90;65.80;;;;;;10035309;28;20049;-60
2021/01/26 19:34:49;;;;;;;4.18;2.58;;;4.80;65.90;;;;;;10038962;28;20057;-61
2021/01/26 19:39:40;;;;;;;4.68;2.60;;;4.80;66.00;;;;;;10039415;28;20077;-61
2021/01/26 19:44:31;;;;;;;4.10;2.45;;;4.80;65.90;;;;;;10041472;28;20029;-60
2021/01/26 19:49:21;;;;;;;6.18;2.83;;;4.80;65.90;;;;;;10037811;28;20117;-61
2021/01/26 19:54:12;;;;;;;7.78;3.53;;;4.80;65.90;;;;;;10041052;28;20036;-61
2021/01/26 19:59:04;;;;;;;6.20;2.90;;;4.70;66.40;;;;;;10037997;28;20095;-61
2021/01/26 20:03:55;;;;;;;6.80;2.88;;;4.60;66.40;;;;;;10044135;28;20025;-61
2021/01/26 20:08:45;;;;;;;4.07;2.50;;;4.70;66.50;;;;;;10034940;28;20152;-59
2021/01/26 20:13:36;;;;;;;6.18;2.45;;;4.60;66.50;;;;;;10036638;28;20034;-62
2021/01/26 20:18:27;;;;;;;6.30;2.60;;;4.50;66.60;;;;;;10042277;28;20033;-61
2021/01/26 20:23:18;;;;;;;5.57;2.30;;;4.50;66.60;;;;;;10039799;28;20253;-61
2021/01/26 20:28:08;;;;;;;7.10;2.75;;;4.50;66.60;;;;;;10037455;28;20388;-61
2021/01/26 20:32:59;;;;;;;7.38;3.25;;;4.50;66.50;;;;;;9956500;28;20594;-62
2021/01/26 20:37:51;;;;;;;5.20;3.33;;;4.60;66.60;;;;;;9963738;28;20519;-61
2021/01/26 20:42:42;;;;;;;5.13;2.35;;;4.50;66.60;;;;;;9965528;28;20061;-62
2021/01/26 20:47:32;;;;;;;4.38;3.15;;;4.50;66.90;;;;;;9965751;28;20037;-62
2021/01/26 20:52:23;;;;;;;3.90;2.50;;;4.50;66.80;;;;;;10012462;28;20048;-61
2021/01/26 20:57:13;;;;;;;5.05;2.40;;;4.60;66.80;;;;;;9992826;28;20037;-63
2021/01/26 21:02:04;;;;;;;4.75;2.53;;;4.50;66.90;;;;;;9961135;28;20053;-59
2021/01/26 21:06:55;;;;;;;3.90;2.35;;;4.50;66.80;;;;;;9963390;28;20034;-64
2021/01/26 21:11:46;;;;;;;4.78;2.13;;;4.40;66.90;;;;;;9962833;28;20075;-61
2021/01/26 21:16:37;;;;;;;4.25;2.42;;;4.40;67.00;;;;;;9965204;28;20042;-60
2021/01/26 21:21:28;;;;;;;3.92;1.92;;;4.30;66.90;;;;;;9969467;28;20056;-61
2021/01/26 21:26:19;;;;;;;6.00;1.77;;;4.30;66.90;;;;;;9971439;28;20036;-61
2021/01/26 21:31:11;;;;;;;4.47;2.42;;;4.30;66.90;;;;;;9970393;28;21361;-61
2021/01/26 21:36:02;;;;;;;5.43;2.30;;;4.20;66.80;;;;;;9971929;28;20954;-60
2021/01/26 21:40:54;;;;;;;3.70;2.17;;;4.10;67.00;;;;;;9970151;28;20138;-61
2021/01/26 21:45:44;;;;;;;3.83;1.75;;;4.10;67.00;;;;;;9970882;28;20072;-61
2021/01/26 21:50:36;;;;;;;2.22;1.42;;;4.00;67.00;;;;;;9972614;28;20567;-60
2021/01/26 21:55:28;;;;;;;3.90;2.30;;;3.90;67.60;;;;;;9971690;28;20044;-61
2021/01/26 22:00:20;;;;;;;5.55;2.03;;;3.90;67.20;;;;;;9969612;28;20367;-59
2021/01/26 22:05:12;;;;;;;4.35;1.73;;;3.80;67.20;;;;;;9970762;28;20116;-61
2021/01/26 22:10:04;;;;;;;5.75;1.85;;;3.80;67.50;;;;;;9969402;28;20506;-61
2021/01/26 22:14:55;;;;;;;3.42;1.75;;;3.80;67.60;;;;;;9969458;28;20037;-59
2021/01/26 22:19:46;;;;;;;2.95;2.45;;;3.70;67.70;;;;;;9971615;28;20053;-60
2021/01/26 22:24:36;;;;;;;3.67;2.17;;;3.70;67.80;;;;;;9971023;28;20463;-59
2021/01/26 22:29:27;;;;;;;4.43;2.28;;;3.70;68.10;;;;;;9968451;28;20053;-59
2021/01/26 22:34:19;;;;;;;7.38;3.90;;;3.80;68.30;;;;;;9969722;28;20056;-61
2021/01/26 22:39:10;;;;;;;5.15;2.88;;;3.80;68.50;;;;;;9970016;28;20443;-60
2021/01/26 22:44:00;;;;;;;6.43;2.50;;;3.80;68.60;;;;;;9967991;28;20128;-60
2021/01/26 22:48:51;;;;;;;5.32;3.25;;;3.80;69.00;;;;;;9968872;28;20041;-60
2021/01/26 22:53:42;;;;;;;3.10;2.58;;;3.80;68.90;;;;;;9968426;28;20037;-61
2021/01/26 22:58:33;;;;;;;6.50;3.90;;;3.80;69.10;;;;;;9969493;28;20072;-60
2021/01/26 23:03:24;;;;;;;6.70;2.88;;;3.70;69.50;;;;;;9967134;28;20363;-61
2021/01/26 23:08:18;;;;;;;4.35;2.53;;;3.50;69.90;;;;;;9967964;28;20121;-60
2021/01/26 23:13:09;;;;;;;5.88;2.90;;;3.60;70.20;;;;;;9966226;28;20041;-59
2021/01/26 23:18:00;;;;;;;6.13;3.15;;;3.50;70.40;;;;;;9968007;28;20055;-60
2021/01/26 23:22:51;;;;;;;8.63;3.28;;;3.50;71.10;;;;;;9968502;28;20542;-59
2021/01/26 23:27:42;;;;;;;3.70;2.63;;;3.50;71.00;;;;;;9968371;28;20494;-60
2021/01/26 23:32:34;;;;;;;4.93;2.85;;;3.50;71.20;;;;;;9969091;28;20045;-61
2021/01/26 23:37:24;;;;;;;5.20;2.92;;;3.50;71.30;;;;;;9968180;28;20047;-60
2021/01/26 23:42:15;;;;;;;6.47;3.47;;;3.40;71.60;;;;;;9965985;28;20298;-60
2021/01/26 23:47:05;;;;;;;6.50;3.25;;;3.30;71.80;;;;;;9967034;28;20049;-60
2021/01/26 23:51:56;;;;;;;2.90;2.35;;;3.30;71.90;;;;;;9967780;28;20088;-60
2021/01/26 23:56:47;;;;;;;6.13;2.70;;;3.30;72.10;;;;;;9961444;28;21100;-60
